createdAt,value
2019-04-14T00:00:44.744Z,102639.95
2019-04-14T00:03:34.740Z,102639.18
2019-04-14T00:06:06.960Z,102635.85
2019-04-14T00:08:39.458Z,102635.16
2019-04-14T00:11:10.420Z,102629.59
2019-04-14T00:13:39.933Z,102629.01
2019-04-14T00:16:09.659Z,102639.63
2019-04-14T00:18:40.432Z,102631.96
2019-04-14T00:21:15.304Z,102634.48
2019-04-14T00:23:46.400Z,102626.50
2019-04-14T00:26:38.481Z,102635.83
2019-04-14T00:29:15.214Z,102629.17
2019-04-14T00:31:47.913Z,102630.37
2019-04-14T00:34:37.635Z,102630.28
2019-04-14T00:37:37.960Z,102631.16
2019-04-14T00:40:19.357Z,102634.80
2019-04-14T00:42:58.196Z,102635.80
2019-04-14T00:45:41.462Z,102635.57
2019-04-14T00:48:16.167Z,102631.32
2019-04-14T00:50:47.308Z,102634.63
2019-04-14T00:53:20.786Z,102633.85
2019-04-14T00:55:59.822Z,102635.87
2019-04-14T00:58:43.153Z,102635.75
2019-04-14T01:01:28.637Z,102625.53
2019-04-14T01:04:01.677Z,102624.22
2019-04-14T01:07:08.637Z,102627.70
2019-04-14T01:09:39.097Z,102624.22
2019-04-14T01:12:13.395Z,102621.38
2019-04-14T01:14:54.574Z,102629.98
2019-04-14T01:17:24.452Z,102627.11
2019-04-14T01:19:59.287Z,102626.91
2019-04-14T01:23:04.249Z,102627.06
2019-04-14T01:25:37.341Z,102624.12
2019-04-14T01:28:12.080Z,102622.95
2019-04-14T01:30:48.046Z,102627.44
2019-04-14T01:33:18.325Z,102629.14
2019-04-14T01:35:48.913Z,102628.37
2019-04-14T01:38:19.038Z,102636.27
2019-04-14T01:41:10.664Z,102629.94
2019-04-14T01:43:40.670Z,102623.52
2019-04-14T01:46:24.683Z,102626.77
2019-04-14T01:48:51.921Z,102631.42
2019-04-14T01:51:37.512Z,102631.65
2019-04-14T01:54:21.968Z,102635.75
2019-04-14T01:57:30.961Z,102635.61
2019-04-14T02:00:45.002Z,102634.05
2019-04-14T02:03:28.177Z,102637.83
2019-04-14T02:06:11.561Z,102639.08
2019-04-14T02:09:21.479Z,102635.42
2019-04-14T02:12:17.325Z,102641.06
2019-04-14T02:15:13.307Z,102661.52
2019-04-14T02:17:48.310Z,102658.84
2019-04-14T02:20:38.119Z,102662.44
2019-04-14T02:23:47.549Z,102666.03
2019-04-14T02:26:33.356Z,102666.93
2019-04-14T02:29:14.838Z,102667.91
2019-04-14T02:32:25.321Z,102671.46
2019-04-14T02:35:00.229Z,102663.13
2019-04-14T02:37:34.575Z,102671.92
2019-04-14T02:40:21.697Z,102671.53
2019-04-14T02:43:13.012Z,102673.30
2019-04-14T02:45:33.161Z,102679.31
2019-04-14T02:48:03.827Z,102683.44
2019-04-14T02:50:24.364Z,102682.59
2019-04-14T02:53:13.065Z,102690.53
2019-04-14T02:55:46.813Z,102686.66
2019-04-14T02:58:23.292Z,102688.89
2019-04-14T03:03:41.379Z,102686.22
2019-04-14T03:06:14.605Z,102688.13
2019-04-14T03:08:50.802Z,102694.91
2019-04-14T03:11:18.675Z,102685.39
2019-04-14T03:13:51.095Z,102689.45
2019-04-14T03:16:58.315Z,102686.17
2019-04-14T03:19:56.539Z,102688.89
2019-04-14T03:22:45.450Z,102694.99
2019-04-14T03:25:30.060Z,102689.74
2019-04-14T03:39:18.772Z,102693.02
2019-04-14T03:44:33.149Z,102707.45
2019-04-14T03:46:58.195Z,102703.06
2019-04-14T03:49:32.106Z,102708.31
2019-04-14T03:55:01.048Z,102712.88
2019-04-14T03:57:19.419Z,102711.05
2019-04-14T03:59:56.277Z,102716.30
2019-04-14T04:02:31.551Z,102714.98
2019-04-14T04:05:04.196Z,102718.97
2019-04-14T04:07:34.381Z,102718.59
2019-04-14T04:10:15.866Z,102716.08
2019-04-14T04:12:46.999Z,102719.08
2019-04-14T04:15:21.401Z,102721.65
2019-04-14T04:18:04.817Z,102727.44
2019-04-14T04:21:05.330Z,102727.12
2019-04-14T04:24:27.826Z,102726.95
2019-04-14T04:27:28.919Z,102734.98
2019-04-14T04:30:12.370Z,102736.95
2019-04-14T04:33:24.230Z,102740.31
2019-04-14T04:36:01.091Z,102745.58
2019-04-14T04:39:04.001Z,102747.61
2019-04-14T04:41:33.978Z,102750.67
2019-04-14T04:44:11.682Z,102753.23
2019-04-14T04:46:48.355Z,102747.11
2019-04-14T04:49:21.787Z,102749.20
2019-04-14T04:51:49.059Z,102750.92
2019-04-14T04:54:27.924Z,102749.20
2019-04-14T04:56:58.028Z,102744.87
2019-04-14T04:59:32.117Z,102745.09
2019-04-14T05:02:02.651Z,102749.83
2019-04-14T05:04:41.630Z,102751.19
2019-04-14T05:07:17.038Z,102753.13
2019-04-14T05:10:06.870Z,102749.69
2019-04-14T05:13:09.400Z,102752.30
2019-04-14T05:15:53.216Z,102744.93
2019-04-14T05:18:29.099Z,102750.62
2019-04-14T05:20:59.523Z,102753.68
2019-04-14T05:23:29.943Z,102753.68
2019-04-14T05:26:00.574Z,102766.66
2019-04-14T05:28:31.009Z,102766.66
2019-04-14T05:31:01.234Z,102766.03
2019-04-14T05:33:38.925Z,102768.52
2019-04-14T05:36:08.662Z,102771.31
2019-04-14T05:38:44.926Z,102771.31
2019-04-14T05:41:18.002Z,102775.42
2019-04-14T05:43:57.060Z,102779.07
2019-04-14T05:46:25.170Z,102776.52
2019-04-14T05:48:55.784Z,102776.44
2019-04-14T05:51:26.399Z,102776.44
2019-04-14T05:53:58.974Z,102778.75
2019-04-14T05:56:29.539Z,102786.16
2019-04-14T05:59:00.054Z,102769.15
2019-04-14T06:01:31.573Z,102781.82
2019-04-14T06:04:02.447Z,102787.56
2019-04-14T06:06:32.089Z,102787.56
2019-04-14T06:09:01.581Z,102785.28
2019-04-14T06:11:31.039Z,102785.28
2019-04-14T06:14:00.427Z,102781.73
2019-04-14T06:16:29.903Z,102795.20
2019-04-14T06:18:59.334Z,102794.94
2019-04-14T06:21:28.794Z,102794.94
2019-04-14T06:23:58.543Z,102797.58
2019-04-14T06:26:28.253Z,102797.88
2019-04-14T06:28:57.661Z,102801.48
2019-04-14T06:31:34.964Z,102804.55
2019-04-14T06:34:09.162Z,102807.18
2019-04-14T06:37:07.582Z,102795.47
2019-04-14T06:39:40.432Z,102800.30
2019-04-14T06:42:10.013Z,102800.22
2019-04-14T06:44:39.555Z,102791.88
2019-04-14T06:47:09.127Z,102795.28
2019-04-14T06:49:48.379Z,102818.34
2019-04-14T06:52:12.578Z,102817.28
2019-04-14T06:54:42.208Z,102817.25
2019-04-14T06:57:11.603Z,102820.84
2019-04-14T06:59:41.494Z,102821.76
2019-04-14T07:02:11.062Z,102815.33
2019-04-14T07:04:40.503Z,102815.33
2019-04-14T07:07:10.169Z,102806.00
2019-04-14T07:09:39.667Z,102810.25
2019-04-14T07:12:09.191Z,102817.86
2019-04-14T07:14:39.375Z,102823.37
2019-04-14T07:17:08.850Z,102804.48
2019-04-14T07:19:38.327Z,102811.09
2019-04-14T07:22:07.820Z,102811.09
2019-04-14T07:24:37.726Z,102811.27
2019-04-14T07:27:07.120Z,102804.42
2019-04-14T07:29:46.244Z,102803.33
2019-04-14T07:32:47.229Z,102815.69
2019-04-14T07:35:35.124Z,102814.05
2019-04-14T07:38:15.613Z,102812.95
2019-04-14T07:41:08.130Z,102818.80
2019-04-14T07:43:54.063Z,102812.02
2019-04-14T07:46:43.830Z,102811.40
2019-04-14T07:49:32.841Z,102806.58
2019-04-14T07:52:20.391Z,102809.05
2019-04-14T07:55:17.029Z,102802.30
2019-04-14T07:57:58.032Z,102809.58
2019-04-14T08:00:36.751Z,102812.14
2019-04-14T08:03:10.658Z,102810.50
2019-04-14T08:05:44.017Z,102810.95
2019-04-14T08:08:16.758Z,102806.63
2019-04-14T08:10:46.314Z,102812.24
2019-04-14T08:13:15.957Z,102817.30
2019-04-14T08:15:45.364Z,102812.76
2019-04-14T08:18:15.213Z,102803.22
2019-04-14T08:20:46.228Z,102813.41
2019-04-14T08:23:15.808Z,102807.00
2019-04-14T08:25:48.289Z,102808.02
2019-04-14T08:28:17.682Z,102801.38
2019-04-14T08:30:47.230Z,102798.80
2019-04-14T08:33:16.897Z,102805.09
2019-04-14T08:35:46.628Z,102799.05
2019-04-14T08:38:16.577Z,102788.66
2019-04-14T08:40:46.251Z,102807.42
2019-04-14T08:43:34.463Z,102795.45
2019-04-14T08:46:28.576Z,102798.33
2019-04-14T08:49:07.390Z,102799.09
2019-04-14T08:51:42.627Z,102794.73
2019-04-14T08:54:36.947Z,102799.42
2019-04-14T08:57:34.398Z,102806.20
2019-04-14T09:00:32.054Z,102805.34
2019-04-14T09:03:23.252Z,102798.69
2019-04-14T09:06:10.258Z,102805.49
2019-04-14T09:08:53.344Z,102804.75
2019-04-14T09:11:28.983Z,102812.16
2019-04-14T09:14:10.155Z,102805.38
2019-04-14T09:16:31.043Z,102804.98
2019-04-14T09:19:07.387Z,102814.80
2019-04-14T09:21:31.588Z,102813.58
2019-04-14T09:24:00.967Z,102820.22
2019-04-14T09:26:30.428Z,102818.06
2019-04-14T09:29:00.239Z,102822.66
2019-04-14T09:31:29.824Z,102819.77
2019-04-14T09:33:59.268Z,102817.56
2019-04-14T09:36:28.775Z,102819.26
2019-04-14T09:38:58.312Z,102828.56
2019-04-14T09:41:27.715Z,102815.72
2019-04-14T09:43:57.163Z,102824.56
2019-04-14T09:46:26.571Z,102816.56
2019-04-14T09:48:56.044Z,102821.50
2019-04-14T09:51:25.574Z,102818.47
2019-04-14T09:53:55.110Z,102817.45
2019-04-14T09:56:24.550Z,102819.33
2019-04-14T09:58:54.212Z,102820.16
2019-04-14T10:01:27.611Z,102821.02
2019-04-14T10:03:57.084Z,102810.42
2019-04-14T10:06:26.670Z,102815.76
2019-04-14T10:08:56.372Z,102823.55
2019-04-14T10:11:25.935Z,102811.27
2019-04-14T10:13:55.427Z,102823.20
2019-04-14T10:16:25.064Z,102822.83
2019-04-14T10:18:54.555Z,102825.45
2019-04-14T10:21:24.217Z,102816.76
2019-04-14T10:23:53.587Z,102824.44
2019-04-14T10:26:23.074Z,102817.56
2019-04-14T10:28:53.123Z,102822.34
2019-04-14T10:31:22.579Z,102820.20
2019-04-14T10:33:52.382Z,102815.53
2019-04-14T10:36:21.891Z,102820.22
2019-04-14T10:38:51.587Z,102820.70
2019-04-14T10:41:21.094Z,102825.90
2019-04-14T10:43:50.623Z,102826.61
2019-04-14T10:46:20.062Z,102834.20
2019-04-14T10:48:49.992Z,102839.02
2019-04-14T10:51:29.464Z,102829.64
2019-04-14T10:53:51.094Z,102833.45
2019-04-14T10:56:20.685Z,102845.22
2019-04-14T10:58:50.173Z,102839.03
2019-04-14T11:01:19.733Z,102843.28
2019-04-14T11:03:50.516Z,102841.33
2019-04-14T11:06:30.259Z,102831.38
2019-04-14T11:08:59.627Z,102837.77
2019-04-14T11:11:29.109Z,102846.25
2019-04-14T11:13:58.547Z,102845.20
2019-04-14T11:16:27.906Z,102847.63
2019-04-14T11:18:59.326Z,102848.48
2019-04-14T11:21:41.612Z,102849.09
2019-04-14T11:24:00.566Z,102844.37
2019-04-14T11:26:30.067Z,102845.34
2019-04-14T11:28:59.731Z,102843.27
2019-04-14T11:32:03.239Z,102844.61
2019-04-14T11:34:41.341Z,102846.53
2019-04-14T11:37:29.350Z,102843.64
2019-04-14T11:39:59.053Z,102831.86
2019-04-14T11:42:28.460Z,102833.17
2019-04-14T11:44:58.244Z,102831.81
2019-04-14T11:47:27.938Z,102823.81
2019-04-14T11:49:59.225Z,102830.66
2019-04-14T11:52:28.662Z,102820.27
2019-04-14T11:54:59.360Z,102822.22
2019-04-14T11:57:28.914Z,102821.11
2019-04-14T12:00:15.426Z,102813.80
2019-04-14T12:03:16.559Z,102815.82
2019-04-14T12:06:26.524Z,102815.98
2019-04-14T12:09:26.999Z,102819.48
2019-04-14T12:11:56.573Z,102811.56
2019-04-14T12:14:26.128Z,102821.66
2019-04-14T12:16:55.564Z,102821.02
2019-04-14T12:19:25.162Z,102812.35
2019-04-14T12:22:07.434Z,102812.66
2019-04-14T12:24:25.728Z,102805.00
2019-04-14T12:26:55.947Z,102807.78
2019-04-14T12:29:26.130Z,102807.94
2019-04-14T12:31:55.838Z,102799.28
2019-04-14T12:34:25.482Z,102798.98
2019-04-14T12:36:55.288Z,102799.49
2019-04-14T12:39:25.532Z,102790.84
2019-04-14T12:42:12.455Z,102799.58
2019-04-14T12:45:01.780Z,102801.89
2019-04-14T12:47:41.795Z,102792.52
2019-04-14T12:50:34.173Z,102793.00
2019-04-14T12:53:03.708Z,102769.47
2019-04-14T12:55:33.146Z,102783.28
2019-04-14T12:58:04.294Z,102796.80
2019-04-14T13:00:49.352Z,102785.03
2019-04-14T13:03:18.944Z,102784.41
2019-04-14T13:05:48.503Z,102787.62
2019-04-14T13:08:17.935Z,102788.63
2019-04-14T13:10:47.409Z,102785.69
2019-04-14T13:13:16.967Z,102775.99
2019-04-14T13:15:46.525Z,102782.81
2019-04-14T13:18:15.971Z,102783.78
2019-04-14T13:20:45.455Z,102780.75
2019-04-14T13:23:15.086Z,102783.52
2019-04-14T13:25:44.595Z,102771.98
2019-04-14T13:28:14.198Z,102780.69
2019-04-14T13:30:46.857Z,102779.21
2019-04-14T13:33:16.424Z,102776.27
2019-04-14T13:35:46.255Z,102765.21
2019-04-14T13:38:17.271Z,102771.63
2019-04-14T13:40:46.948Z,102761.50
2019-04-14T13:43:19.333Z,102765.78
2019-04-14T13:45:49.006Z,102757.72
2019-04-14T13:48:18.388Z,102756.52
2019-04-14T13:50:48.235Z,102767.00
2019-04-14T13:53:17.680Z,102765.19
2019-04-14T13:55:47.747Z,102764.63
2019-04-14T13:58:17.271Z,102750.77
2019-04-14T14:00:47.227Z,102753.84
2019-04-14T14:03:16.690Z,102762.58
2019-04-14T14:05:55.819Z,102759.13
2019-04-14T14:08:25.307Z,102752.92
2019-04-14T14:10:58.055Z,102757.23
2019-04-14T14:13:39.198Z,102741.19
2019-04-14T14:16:39.718Z,102753.99
2019-04-14T14:19:23.002Z,102757.33
2019-04-14T14:22:15.039Z,102755.23
2019-04-14T14:24:52.536Z,102753.47
2019-04-14T14:27:21.984Z,102752.80
2019-04-14T14:29:51.367Z,102750.83
2019-04-14T14:32:32.412Z,102754.97
2019-04-14T14:35:01.997Z,102756.19
2019-04-14T14:37:32.555Z,102757.90
2019-04-14T14:40:02.049Z,102741.63
2019-04-14T14:42:31.517Z,102746.10
2019-04-14T14:45:20.175Z,102747.91
2019-04-14T14:48:09.530Z,102742.73
2019-04-14T14:50:47.532Z,102739.31
2019-04-14T14:53:16.956Z,102744.79
2019-04-14T14:55:46.384Z,102736.35
2019-04-14T14:58:16.025Z,102734.45
2019-04-14T15:00:45.439Z,102733.67
2019-04-14T15:03:14.840Z,102737.33
2019-04-14T15:05:44.462Z,102734.07
2019-04-14T15:08:14.073Z,102733.19
2019-04-14T15:10:43.475Z,102732.77
2019-04-14T15:13:13.019Z,102723.88
2019-04-14T15:15:42.700Z,102736.05
2019-04-14T15:18:12.327Z,102734.13
2019-04-14T15:20:41.937Z,102737.56
2019-04-14T15:23:24.017Z,102740.87
2019-04-14T15:25:42.569Z,102731.30
2019-04-14T15:28:12.119Z,102736.38
2019-04-14T15:30:41.516Z,102738.89
2019-04-14T15:33:10.914Z,102738.05
2019-04-14T15:35:40.470Z,102734.94
2019-04-14T15:38:10.185Z,102737.44
2019-04-14T15:40:42.076Z,102734.20
2019-04-14T15:43:11.461Z,102733.71
2019-04-14T15:45:40.932Z,102731.97
2019-04-14T15:48:10.370Z,102732.28
2019-04-14T15:50:40.278Z,102727.50
2019-04-14T15:53:09.754Z,102728.58
2019-04-14T15:55:39.219Z,102723.06
2019-04-14T15:58:18.965Z,102719.94
2019-04-14T16:01:10.270Z,102703.53
2019-04-14T16:03:45.390Z,102721.42
2019-04-14T16:06:41.725Z,102717.09
2019-04-14T16:09:33.124Z,102722.03
2019-04-14T16:12:16.288Z,102716.57
2019-04-14T16:15:14.211Z,102713.14
2019-04-14T16:18:02.437Z,102712.34
2019-04-14T16:20:34.229Z,102706.02
2019-04-14T16:23:03.693Z,102703.83
2019-04-14T16:26:02.187Z,102706.30
2019-04-14T16:28:53.590Z,102702.69
2019-04-14T16:31:40.549Z,102703.69
2019-04-14T16:34:16.308Z,102704.83
2019-04-14T16:36:46.670Z,102702.94
2019-04-14T16:39:16.212Z,102704.83
2019-04-14T16:41:46.201Z,102701.95
2019-04-14T16:44:15.726Z,102702.39
2019-04-14T16:46:45.256Z,102700.27
2019-04-14T16:49:14.811Z,102705.53
2019-04-14T16:52:12.189Z,102702.02
2019-04-14T16:54:56.729Z,102700.27
2019-04-14T16:57:43.721Z,102699.58
2019-04-14T17:00:16.660Z,102695.70
2019-04-14T17:02:50.245Z,102696.92
2019-04-14T17:05:19.731Z,102698.39
2019-04-14T17:07:49.138Z,102700.98
2019-04-14T17:10:18.541Z,102707.70
2019-04-14T17:12:48.063Z,102705.09
2019-04-14T17:15:30.543Z,102710.69
2019-04-14T17:18:18.640Z,102714.66
2019-04-14T17:21:16.081Z,102708.37
2019-04-14T17:23:54.056Z,102719.94
2019-04-14T17:26:33.321Z,102717.45
2019-04-14T17:29:21.740Z,102716.49
2019-04-14T17:32:25.382Z,102717.16
2019-04-14T17:35:12.644Z,102722.17
2019-04-14T17:38:03.858Z,102721.41
2019-04-14T17:40:51.314Z,102722.69
2019-04-14T17:43:28.905Z,102733.32
2019-04-14T17:46:17.255Z,102739.43
2019-04-14T17:49:05.669Z,102738.41
2019-04-14T17:51:50.636Z,102744.42
2019-04-14T17:54:35.487Z,102746.23
2019-04-14T17:57:23.779Z,102745.89
2019-04-14T18:00:04.243Z,102748.23
2019-04-14T18:02:52.457Z,102753.27
2019-04-14T18:05:40.803Z,102752.94
2019-04-14T18:08:32.707Z,102751.64
2019-04-14T18:11:07.780Z,102757.44
2019-04-14T18:14:02.402Z,102758.17
2019-04-14T18:16:36.054Z,102755.63
2019-04-14T18:19:12.671Z,102756.92
2019-04-14T18:21:44.305Z,102755.20
2019-04-14T18:24:13.454Z,102755.41
2019-04-14T18:26:42.820Z,102754.31
2019-04-14T18:29:46.397Z,102759.22
2019-04-14T18:32:29.863Z,102764.50
2019-04-14T18:35:20.571Z,102769.84
2019-04-14T18:38:13.923Z,102769.69
2019-04-14T18:41:01.789Z,102772.99
2019-04-14T18:43:56.453Z,102774.16
2019-04-14T18:46:56.782Z,102777.48
2019-04-14T18:49:44.034Z,102777.78
2019-04-14T18:52:35.510Z,102777.78
2019-04-14T18:55:30.315Z,102777.97
2019-04-14T18:58:36.325Z,102784.75
2019-04-14T19:01:11.600Z,102785.04
2019-04-14T19:03:41.107Z,102783.41
2019-04-14T19:06:10.565Z,102784.67
2019-04-14T19:08:39.944Z,102778.82
2019-04-14T19:11:26.242Z,102783.52
2019-04-14T19:13:57.461Z,102779.95
2019-04-14T19:16:39.606Z,102785.11
2019-04-14T19:19:05.146Z,102782.97
2019-04-14T19:21:34.533Z,102785.67
2019-04-14T19:24:03.975Z,102786.93
2019-04-14T19:26:33.345Z,102788.18
2019-04-14T19:29:03.238Z,102789.56
2019-04-14T19:31:32.686Z,102788.77
2019-04-14T19:34:02.630Z,102797.01
2019-04-14T19:36:32.025Z,102798.00
2019-04-14T19:39:01.477Z,102799.14
2019-04-14T19:41:32.566Z,102795.09
2019-04-14T19:44:02.443Z,102798.91
2019-04-14T19:46:31.855Z,102801.38
2019-04-14T19:49:01.244Z,102792.97
2019-04-14T19:51:30.693Z,102801.14
2019-04-14T19:54:00.394Z,102795.47
2019-04-14T19:56:29.967Z,102798.91
2019-04-14T19:59:06.383Z,102797.58
2019-04-14T20:01:35.862Z,102803.63
2019-04-14T20:04:05.285Z,102802.44
2019-04-14T20:06:36.201Z,102805.77
2019-04-14T20:09:07.129Z,102812.50
2019-04-14T20:11:36.689Z,102806.63
2019-04-14T20:14:06.126Z,102806.63
2019-04-14T20:17:13.025Z,102811.18
2019-04-14T20:19:59.877Z,102810.39
2019-04-14T20:22:48.274Z,102810.59
2019-04-14T20:25:41.283Z,102813.03
2019-04-14T20:28:16.958Z,102813.03
2019-04-14T20:30:49.821Z,102811.39
2019-04-14T20:33:19.370Z,102811.39
2019-04-14T20:35:48.897Z,102825.80
2019-04-14T20:38:18.353Z,102820.77
2019-04-14T20:40:48.363Z,102820.77
2019-04-14T20:43:17.772Z,102838.95
2019-04-14T20:45:47.429Z,102838.95
2019-04-14T20:48:17.004Z,102841.20
2019-04-14T20:50:46.444Z,102837.39
2019-04-14T20:53:18.522Z,102843.54
2019-04-14T20:55:47.971Z,102843.02
2019-04-14T20:58:17.408Z,102843.02
2019-04-14T21:00:49.405Z,102838.89
2019-04-14T21:03:40.841Z,102843.13
2019-04-14T21:06:29.299Z,102842.05
2019-04-14T21:09:19.389Z,102842.05
2019-04-14T21:12:16.711Z,102843.82
2019-04-14T21:14:54.968Z,102843.82
2019-04-14T21:17:41.282Z,102848.67
2019-04-14T21:20:27.941Z,102846.43
2019-04-14T21:23:32.950Z,102844.09
2019-04-14T21:26:16.693Z,102843.73
2019-04-14T21:29:02.351Z,102843.73
2019-04-14T21:31:39.065Z,102851.34
2019-04-14T21:34:16.996Z,102853.50
2019-04-14T21:36:55.264Z,102853.30
2019-04-14T21:39:40.386Z,102859.33
2019-04-14T21:42:09.637Z,102857.95
2019-04-14T21:44:48.784Z,102860.89
2019-04-14T21:47:20.921Z,102856.48
2019-04-14T21:49:58.290Z,102865.78
2019-04-14T21:52:49.857Z,102868.35
2019-04-14T21:55:32.049Z,102871.27
2019-04-14T21:58:25.529Z,102874.66
2019-04-14T22:01:44.559Z,102874.98
2019-04-14T22:04:35.703Z,102880.39
2019-04-14T22:07:26.811Z,102881.00
2019-04-14T22:10:00.504Z,102890.20
2019-04-14T22:12:40.056Z,102885.97
2019-04-14T22:15:17.958Z,102883.09
2019-04-14T22:17:47.410Z,102886.86
2019-04-14T22:20:19.226Z,102880.98
2019-04-14T22:22:48.712Z,102890.01
2019-04-14T22:25:25.757Z,102880.48
2019-04-14T22:27:55.267Z,102883.73
2019-04-14T22:30:24.958Z,102887.75
2019-04-14T22:32:54.363Z,102889.99
2019-04-14T22:35:33.356Z,102889.67
2019-04-14T22:38:02.710Z,102889.88
2019-04-14T22:40:35.130Z,102897.09
2019-04-14T22:43:05.752Z,102890.64
2019-04-14T22:46:11.974Z,102892.55
2019-04-14T22:48:39.489Z,102891.44
2019-04-14T22:51:09.089Z,102894.84
2019-04-14T22:54:22.779Z,102891.95
2019-04-14T22:56:39.050Z,102892.08
2019-04-14T22:59:04.461Z,102888.43
2019-04-14T23:01:39.573Z,102895.13
2019-04-14T23:04:46.363Z,102890.08
2019-04-14T23:07:51.608Z,102892.47
2019-04-14T23:10:53.793Z,102890.10
2019-04-14T23:14:19.284Z,102900.84
2019-04-14T23:17:06.861Z,102898.34
2019-04-14T23:19:49.603Z,102893.87
2019-04-14T23:22:43.315Z,102895.73
2019-04-14T23:25:46.991Z,102899.41
2019-04-14T23:28:55.907Z,102899.20
2019-04-14T23:31:27.334Z,102904.13
2019-04-14T23:34:15.139Z,102908.81
2019-04-14T23:36:51.247Z,102905.06
2019-04-14T23:39:22.700Z,102911.38
2019-04-14T23:41:52.989Z,102915.05
2019-04-14T23:44:31.348Z,102914.77
2019-04-14T23:47:01.054Z,102917.06
2019-04-14T23:49:51.245Z,102915.97
